createdAt,value
2019-03-21T00:01:19.592Z,11.85
2019-03-21T00:03:49.458Z,15.10
2019-03-21T00:06:17.678Z,12.20
2019-03-21T00:08:47.129Z,11.63
2019-03-21T00:11:38.162Z,12.13
2019-03-21T00:14:09.648Z,13.75
2019-03-21T00:16:37.867Z,12.93
2019-03-21T00:19:06.116Z,13.90
2019-03-21T00:21:34.364Z,15.25
2019-03-21T00:24:02.607Z,14.95
2019-03-21T00:26:31.495Z,18.57
2019-03-21T00:28:59.721Z,15.98
2019-03-21T00:31:27.936Z,14.90
2019-03-21T00:33:56.168Z,13.15
2019-03-21T00:36:24.380Z,17.55
2019-03-21T00:38:52.605Z,17.73
2019-03-21T00:41:20.822Z,13.68
2019-03-21T00:43:49.463Z,14.18
2019-03-21T00:46:17.684Z,14.78
2019-03-21T00:48:45.905Z,17.45
2019-03-21T00:51:14.130Z,19.42
2019-03-21T00:53:42.371Z,23.40
2019-03-21T00:56:10.599Z,18.48
2019-03-21T00:58:39.094Z,16.52
2019-03-21T01:01:08.535Z,17.48
2019-03-21T01:03:38.038Z,14.18
2019-03-21T01:06:06.274Z,16.60
2019-03-21T01:08:34.484Z,16.07
2019-03-21T01:11:02.697Z,17.92
2019-03-21T01:13:38.787Z,18.92
2019-03-21T01:16:07.013Z,16.93
2019-03-21T01:18:39.163Z,20.85
2019-03-21T01:21:07.454Z,17.90
2019-03-21T01:23:35.681Z,17.57
2019-03-21T01:26:06.788Z,19.57
2019-03-21T01:28:35.035Z,16.48
2019-03-21T01:31:03.262Z,19.48
2019-03-21T01:33:32.055Z,18.82
2019-03-21T01:36:02.183Z,20.05
2019-03-21T01:38:30.410Z,18.77
2019-03-21T01:41:01.177Z,18.52
2019-03-21T01:43:29.402Z,19.77
2019-03-21T01:45:57.886Z,16.15
2019-03-21T01:48:26.111Z,15.40
2019-03-21T01:50:54.369Z,17.50
2019-03-21T01:53:23.916Z,17.80
2019-03-21T01:55:52.192Z,15.68
2019-03-21T01:58:21.718Z,14.15
2019-03-21T02:00:55.105Z,18.75
2019-03-21T02:03:23.331Z,16.30
2019-03-21T02:05:51.565Z,14.85
2019-03-21T02:08:19.786Z,18.05
2019-03-21T02:10:48.104Z,14.80
2019-03-21T02:13:16.325Z,13.45
2019-03-21T02:15:46.554Z,15.88
2019-03-21T02:18:14.509Z,12.98
2019-03-21T02:20:43.254Z,17.25
2019-03-21T02:23:11.480Z,14.87
2019-03-21T02:25:46.471Z,17.32
2019-03-21T02:28:14.708Z,13.55
2019-03-21T02:30:48.910Z,12.15
2019-03-21T02:33:26.160Z,14.00
2019-03-21T02:35:56.228Z,13.30
2019-03-21T02:38:24.911Z,17.10
2019-03-21T02:40:56.288Z,15.03
2019-03-21T02:43:26.309Z,15.32
2019-03-21T02:45:54.566Z,15.60
2019-03-21T02:48:22.820Z,16.42
2019-03-21T02:50:51.034Z,14.23
2019-03-21T02:53:19.312Z,12.50
2019-03-21T02:55:47.603Z,16.23
2019-03-21T02:58:15.845Z,14.60
2019-03-21T03:00:45.499Z,13.58
2019-03-21T03:03:13.741Z,17.35
2019-03-21T03:05:41.988Z,11.93
2019-03-21T03:08:10.392Z,13.98
2019-03-21T03:10:50.257Z,18.10
2019-03-21T03:13:18.518Z,13.80
2019-03-21T03:15:46.733Z,13.48
2019-03-21T03:18:18.486Z,12.13
2019-03-21T03:20:46.796Z,12.37
2019-03-21T03:23:17.166Z,15.43
2019-03-21T03:25:45.900Z,13.98
2019-03-21T03:28:25.805Z,16.97
2019-03-21T03:30:56.931Z,12.40
2019-03-21T03:33:25.151Z,13.75
2019-03-21T03:35:55.531Z,13.78
2019-03-21T03:38:24.579Z,13.55
2019-03-21T03:41:01.602Z,12.35
2019-03-21T03:43:29.860Z,11.68
2019-03-21T03:45:58.066Z,13.55
2019-03-21T03:48:27.543Z,13.38
2019-03-21T03:50:55.802Z,14.90
2019-03-21T03:53:24.008Z,13.60
2019-03-21T03:55:52.226Z,14.90
2019-03-21T03:58:29.039Z,9.13
2019-03-21T04:00:58.442Z,24.40
2019-03-21T04:03:28.290Z,40.48
2019-03-21T04:05:56.693Z,29.87
2019-03-21T04:08:24.970Z,29.45
2019-03-21T04:10:54.361Z,26.33
2019-03-21T04:13:22.609Z,19.12
2019-03-21T04:15:52.919Z,17.30
2019-03-21T04:18:23.004Z,15.88
2019-03-21T04:20:57.252Z,12.03
2019-03-21T04:23:25.483Z,15.30
2019-03-21T04:25:56.546Z,15.08
2019-03-21T04:28:24.777Z,11.10
2019-03-21T04:30:53.031Z,14.33
2019-03-21T04:33:22.765Z,12.85
2019-03-21T04:35:51.380Z,13.88
2019-03-21T04:38:19.613Z,14.40
2019-03-21T04:40:48.507Z,13.90
2019-03-21T04:43:16.841Z,14.15
2019-03-21T04:45:45.049Z,11.20
2019-03-21T04:48:13.439Z,9.73
2019-03-21T04:50:42.357Z,14.30
2019-03-21T04:53:10.615Z,16.17
2019-03-21T04:55:38.899Z,13.60
2019-03-21T04:58:07.129Z,11.60
2019-03-21T05:00:49.635Z,11.90
2019-03-21T05:03:23.769Z,10.23
2019-03-21T05:05:51.978Z,13.25
2019-03-21T05:08:20.206Z,12.33
2019-03-21T05:10:48.432Z,13.85
2019-03-21T05:13:16.670Z,9.53
2019-03-21T05:15:49.470Z,13.95
2019-03-21T05:18:29.977Z,11.38
2019-03-21T05:20:59.322Z,36.48
2019-03-21T05:23:27.632Z,27.52
2019-03-21T05:25:55.915Z,17.57
2019-03-21T05:28:24.228Z,16.35
2019-03-21T05:31:01.539Z,11.43
2019-03-21T05:33:30.159Z,12.65
2019-03-21T05:35:58.485Z,12.68
2019-03-21T05:38:29.544Z,10.78
2019-03-21T05:40:57.774Z,12.45
2019-03-21T05:43:35.100Z,11.97
2019-03-21T05:46:03.401Z,11.90
2019-03-21T05:48:32.373Z,15.28
2019-03-21T05:51:01.077Z,13.45
2019-03-21T05:53:29.304Z,14.05
2019-03-21T05:55:57.510Z,13.35
2019-03-21T05:58:25.791Z,14.43
2019-03-21T06:00:59.745Z,12.98
2019-03-21T06:03:34.167Z,16.52
2019-03-21T06:06:17.934Z,16.42
2019-03-21T06:11:33.109Z,14.18
2019-03-21T06:14:01.372Z,14.90
2019-03-21T06:16:37.591Z,17.48
2019-03-21T06:19:24.179Z,15.40
2019-03-21T06:21:59.620Z,16.45
2019-03-21T06:24:33.997Z,15.48
2019-03-21T06:27:16.912Z,15.50
2019-03-21T06:29:45.167Z,14.00
2019-03-21T06:32:13.380Z,12.47
2019-03-21T06:34:41.591Z,15.85
2019-03-21T06:37:09.842Z,14.05
2019-03-21T06:39:38.077Z,14.98
2019-03-21T06:42:20.027Z,14.93
2019-03-21T06:44:48.254Z,12.20
2019-03-21T06:47:16.461Z,13.68
2019-03-21T06:49:46.596Z,15.20
2019-03-21T06:52:15.025Z,14.60
2019-03-21T06:54:43.270Z,13.10
2019-03-21T06:57:11.472Z,13.40
2019-03-21T06:59:39.697Z,11.10
2019-03-21T07:02:07.910Z,13.50
2019-03-21T07:04:36.194Z,14.70
2019-03-21T07:07:08.487Z,12.25
2019-03-21T07:09:34.353Z,14.40
2019-03-21T07:12:02.568Z,14.70
2019-03-21T07:14:30.797Z,13.30
2019-03-21T07:17:00.701Z,12.65
2019-03-21T07:19:28.954Z,12.55
2019-03-21T07:21:57.162Z,11.08
2019-03-21T07:24:25.407Z,11.55
2019-03-21T07:26:53.613Z,10.82
2019-03-21T07:29:21.857Z,10.75
2019-03-21T07:31:50.070Z,13.60
2019-03-21T07:34:18.333Z,11.70
2019-03-21T07:36:46.524Z,10.50
2019-03-21T07:39:14.737Z,11.63
2019-03-21T07:41:42.948Z,10.48
2019-03-21T07:44:11.162Z,11.60
2019-03-21T07:46:39.374Z,10.58
2019-03-21T07:49:07.586Z,8.40
2019-03-21T07:51:35.806Z,10.85
2019-03-21T07:54:04.018Z,9.53
2019-03-21T07:56:32.238Z,11.25
2019-03-21T07:59:00.498Z,10.43
2019-03-21T08:01:28.722Z,10.53
2019-03-21T08:03:56.968Z,9.93
2019-03-21T08:06:25.217Z,10.98
2019-03-21T08:08:53.421Z,8.68
2019-03-21T08:11:21.650Z,9.00
2019-03-21T08:13:49.857Z,9.23
2019-03-21T08:16:18.123Z,11.12
2019-03-21T08:18:46.329Z,9.55
2019-03-21T08:21:14.558Z,5.80
2019-03-21T08:23:42.808Z,7.92
2019-03-21T08:26:11.022Z,7.22
2019-03-21T08:28:39.240Z,6.45
2019-03-21T08:31:12.399Z,8.40
2019-03-21T08:33:40.613Z,7.53
2019-03-21T08:36:08.832Z,5.30
2019-03-21T08:38:37.055Z,7.87
2019-03-21T08:41:05.265Z,8.48
2019-03-21T08:43:33.478Z,7.42
2019-03-21T08:46:01.739Z,8.90
2019-03-21T08:48:29.956Z,7.78
2019-03-21T08:51:07.664Z,6.62
2019-03-21T08:53:28.167Z,7.80
2019-03-21T08:55:56.381Z,8.98
2019-03-21T08:58:24.594Z,8.38
2019-03-21T09:00:52.806Z,8.10
2019-03-21T09:03:40.450Z,8.35
2019-03-21T09:06:08.665Z,9.95
2019-03-21T09:08:36.887Z,7.53
2019-03-21T09:11:05.147Z,7.95
2019-03-21T09:13:33.366Z,5.72
2019-03-21T09:16:01.603Z,8.95
2019-03-21T09:18:29.835Z,8.25
2019-03-21T09:20:58.055Z,9.48
2019-03-21T09:23:26.279Z,7.28
2019-03-21T09:25:54.506Z,9.33
2019-03-21T09:28:22.720Z,7.62
2019-03-21T09:30:50.981Z,9.93
2019-03-21T09:33:19.238Z,7.92
2019-03-21T09:35:47.486Z,14.30
2019-03-21T09:38:15.703Z,8.58
2019-03-21T09:40:43.938Z,8.85
2019-03-21T09:43:12.155Z,7.72
2019-03-21T09:45:40.383Z,9.15
2019-03-21T09:48:08.594Z,7.92
2019-03-21T09:50:36.909Z,9.20
2019-03-21T09:53:05.109Z,8.48
2019-03-21T09:55:35.046Z,11.30
2019-03-21T09:58:03.266Z,7.70
2019-03-21T10:00:33.965Z,7.00
2019-03-21T10:03:02.201Z,11.12
2019-03-21T10:05:30.412Z,12.78
2019-03-21T10:07:59.694Z,9.48
2019-03-21T10:10:29.697Z,7.95
2019-03-21T10:12:57.942Z,8.60
2019-03-21T10:15:26.208Z,8.35
2019-03-21T10:17:54.708Z,8.58
2019-03-21T10:20:22.918Z,8.38
2019-03-21T10:22:51.145Z,7.78
2019-03-21T10:25:19.362Z,10.15
2019-03-21T10:27:47.586Z,7.90
2019-03-21T10:30:37.593Z,8.70
2019-03-21T10:33:07.152Z,7.03
2019-03-21T10:35:35.361Z,7.80
2019-03-21T10:38:03.580Z,8.60
2019-03-21T10:40:34.898Z,8.93
2019-03-21T10:43:03.137Z,6.47
2019-03-21T10:45:43.684Z,6.28
2019-03-21T10:48:11.906Z,6.75
2019-03-21T10:50:43.091Z,11.78
2019-03-21T10:53:11.346Z,7.20
2019-03-21T10:55:39.628Z,8.60
2019-03-21T10:58:08.181Z,7.03
2019-03-21T11:00:36.462Z,8.78
2019-03-21T11:03:05.267Z,6.95
2019-03-21T11:05:33.520Z,5.78
2019-03-21T11:08:01.736Z,9.08
2019-03-21T11:10:29.947Z,7.62
2019-03-21T11:12:58.356Z,9.83
2019-03-21T11:15:26.644Z,7.42
2019-03-21T11:17:55.268Z,10.53
2019-03-21T11:20:34.097Z,6.03
2019-03-21T11:23:02.316Z,8.30
2019-03-21T11:25:30.581Z,7.65
2019-03-21T11:27:58.801Z,5.70
2019-03-21T11:30:37.651Z,7.37
2019-03-21T11:33:05.911Z,8.23
2019-03-21T11:35:34.128Z,6.58
2019-03-21T11:38:02.339Z,5.92
2019-03-21T11:40:30.595Z,6.65
2019-03-21T11:42:58.810Z,5.97
2019-03-21T11:45:27.021Z,5.42
2019-03-21T11:47:55.243Z,8.20
2019-03-21T11:50:23.462Z,8.65
2019-03-21T11:52:51.690Z,7.67
2019-03-21T11:55:20.030Z,9.80
2019-03-21T11:57:48.432Z,9.70
2019-03-21T12:00:16.656Z,7.05
2019-03-21T12:02:44.866Z,4.67
2019-03-21T12:05:13.090Z,8.28
2019-03-21T12:07:41.316Z,9.83
2019-03-21T12:10:11.259Z,8.90
2019-03-21T12:12:39.536Z,10.72
2019-03-21T12:15:09.399Z,11.15
2019-03-21T12:17:37.609Z,9.95
2019-03-21T12:20:07.679Z,8.13
2019-03-21T12:22:35.950Z,8.98
2019-03-21T12:25:06.049Z,9.25
2019-03-21T12:27:34.268Z,10.25
2019-03-21T12:30:02.565Z,10.32
2019-03-21T12:32:30.793Z,9.18
2019-03-21T12:34:59.015Z,9.40
2019-03-21T12:37:27.229Z,7.15
2019-03-21T12:39:55.437Z,11.20
2019-03-21T12:42:23.656Z,9.38
2019-03-21T12:44:51.886Z,5.97
2019-03-21T12:47:30.843Z,8.90
2019-03-21T12:49:50.072Z,7.90
2019-03-21T12:52:18.286Z,9.53
2019-03-21T12:54:46.511Z,7.62
2019-03-21T12:57:14.721Z,7.15
2019-03-21T12:59:42.943Z,9.73
2019-03-21T13:02:11.166Z,10.88
2019-03-21T13:04:39.378Z,10.58
2019-03-21T13:07:07.585Z,6.80
2019-03-21T13:09:35.810Z,10.35
2019-03-21T13:12:04.033Z,9.10
2019-03-21T13:14:32.254Z,8.15
2019-03-21T13:17:00.465Z,9.45
2019-03-21T13:19:28.719Z,11.57
2019-03-21T13:21:56.921Z,10.65
2019-03-21T13:24:25.184Z,10.43
2019-03-21T13:26:53.397Z,8.83
2019-03-21T13:29:21.622Z,12.07
2019-03-21T13:31:49.862Z,8.10
2019-03-21T13:34:18.159Z,7.42
2019-03-21T13:36:46.377Z,8.73
2019-03-21T13:39:14.631Z,10.35
2019-03-21T13:41:42.876Z,11.55
2019-03-21T13:44:11.137Z,12.85
2019-03-21T13:46:39.344Z,15.90
2019-03-21T13:49:07.611Z,15.88
2019-03-21T13:51:35.817Z,8.93
2019-03-21T13:54:04.063Z,7.85
2019-03-21T13:56:38.007Z,10.18
2019-03-21T13:59:02.233Z,9.23
2019-03-21T14:01:30.454Z,11.05
2019-03-21T14:03:58.674Z,10.08
2019-03-21T14:06:26.889Z,9.88
2019-03-21T14:08:55.113Z,8.60
2019-03-21T14:11:23.356Z,11.73
2019-03-21T14:13:51.612Z,19.17
2019-03-21T14:16:19.823Z,9.48
2019-03-21T14:18:48.075Z,9.78
2019-03-21T14:21:16.293Z,11.10
2019-03-21T14:23:44.544Z,7.00
2019-03-21T14:26:12.764Z,8.80
2019-03-21T14:28:40.982Z,11.25
2019-03-21T14:31:09.210Z,9.63
2019-03-21T14:33:37.521Z,11.63
2019-03-21T14:36:05.756Z,9.38
2019-03-21T14:38:34.010Z,11.83
2019-03-21T14:41:02.223Z,9.85
2019-03-21T14:43:30.472Z,10.82
2019-03-21T14:45:58.724Z,12.68
2019-03-21T14:48:26.959Z,9.65
2019-03-21T14:50:55.269Z,10.10
2019-03-21T14:53:29.102Z,12.68
2019-03-21T14:55:54.613Z,11.60
2019-03-21T14:58:22.828Z,12.05
2019-03-21T15:00:51.048Z,13.15
2019-03-21T15:03:19.303Z,12.95
2019-03-21T15:05:47.513Z,10.40
2019-03-21T15:08:15.743Z,12.28
2019-03-21T15:10:43.966Z,10.68
2019-03-21T15:13:12.190Z,10.00
2019-03-21T15:15:40.413Z,10.90
2019-03-21T15:18:08.632Z,10.53
2019-03-21T15:20:36.861Z,10.30
2019-03-21T15:23:05.074Z,11.35
2019-03-21T15:25:33.300Z,11.08
2019-03-21T15:28:01.587Z,10.20
2019-03-21T15:30:29.846Z,11.12
2019-03-21T15:32:58.059Z,10.55
2019-03-21T15:35:26.353Z,13.43
2019-03-21T15:37:54.584Z,11.00
2019-03-21T15:40:22.793Z,11.48
2019-03-21T15:42:51.013Z,13.28
2019-03-21T15:45:23.944Z,11.57
2019-03-21T15:47:49.735Z,11.78
2019-03-21T15:50:28.976Z,12.35
2019-03-21T15:52:57.473Z,11.20
2019-03-21T15:55:25.700Z,11.55
2019-03-21T15:57:53.982Z,12.18
2019-03-21T16:00:28.265Z,12.75
2019-03-21T16:02:56.486Z,14.40
2019-03-21T16:05:24.715Z,11.83
2019-03-21T16:07:52.920Z,11.22
2019-03-21T16:10:21.154Z,10.43
2019-03-21T16:12:49.400Z,11.33
2019-03-21T16:15:17.756Z,12.53
2019-03-21T16:17:45.978Z,12.78
2019-03-21T16:20:14.205Z,12.40
2019-03-21T16:22:42.418Z,11.65
2019-03-21T16:25:10.676Z,14.05
2019-03-21T16:27:38.885Z,10.00
2019-03-21T16:30:12.096Z,9.90
2019-03-21T16:32:40.343Z,9.50
2019-03-21T16:35:08.913Z,13.03
2019-03-21T16:37:37.242Z,11.57
2019-03-21T16:40:13.079Z,10.40
2019-03-21T16:42:40.886Z,10.78
2019-03-21T16:45:10.533Z,11.25
2019-03-21T16:47:38.751Z,15.05
2019-03-21T16:50:08.584Z,13.60
2019-03-21T16:52:36.840Z,9.23
2019-03-21T16:55:07.187Z,13.70
2019-03-21T16:57:35.416Z,12.43
2019-03-21T17:00:17.730Z,12.05
2019-03-21T17:02:46.815Z,10.98
2019-03-21T17:05:15.026Z,12.07
2019-03-21T17:07:45.602Z,9.58
2019-03-21T17:10:14.758Z,10.03
2019-03-21T17:12:42.976Z,13.53
2019-03-21T17:15:13.250Z,16.23
2019-03-21T17:17:41.423Z,11.45
2019-03-21T17:20:11.659Z,10.60
2019-03-21T17:22:40.796Z,10.95
2019-03-21T17:25:09.254Z,13.18
2019-03-21T17:27:37.478Z,21.42
2019-03-21T17:30:10.874Z,15.10
2019-03-21T17:32:39.089Z,12.73
2019-03-21T17:35:07.395Z,12.70
2019-03-21T17:37:36.101Z,13.35
2019-03-21T17:40:06.544Z,12.20
2019-03-21T17:42:34.762Z,14.15
2019-03-21T17:45:03.584Z,15.25
2019-03-21T17:47:31.796Z,13.48
2019-03-21T17:50:00.038Z,11.15
2019-03-21T17:52:28.276Z,11.88
2019-03-21T17:54:56.498Z,19.42
2019-03-21T17:57:33.893Z,14.05
2019-03-21T17:59:55.315Z,8.98
2019-03-21T18:02:23.573Z,11.15
2019-03-21T18:04:51.772Z,12.10
2019-03-21T18:07:19.990Z,10.85
2019-03-21T18:09:48.225Z,12.10
2019-03-21T18:12:16.437Z,10.25
2019-03-21T18:14:44.682Z,10.53
2019-03-21T18:17:14.008Z,11.88
2019-03-21T18:19:42.226Z,10.85
2019-03-21T18:22:10.438Z,12.85
2019-03-21T18:24:38.664Z,13.72
2019-03-21T18:27:06.909Z,14.35
2019-03-21T18:29:35.130Z,10.32
2019-03-21T18:32:03.350Z,11.65
2019-03-21T18:34:31.561Z,11.60
2019-03-21T18:36:59.807Z,12.30
2019-03-21T18:39:28.021Z,16.12
2019-03-21T18:41:56.242Z,10.48
2019-03-21T18:44:24.481Z,12.47
2019-03-21T18:46:52.723Z,14.50
2019-03-21T18:49:21.000Z,12.35
2019-03-21T18:51:50.818Z,13.32
2019-03-21T18:54:19.415Z,13.72
2019-03-21T18:56:47.629Z,12.18
2019-03-21T18:59:16.118Z,12.83
2019-03-21T19:01:44.425Z,13.70
2019-03-21T19:04:12.699Z,12.88
2019-03-21T19:06:40.919Z,12.68
2019-03-21T19:09:08.910Z,12.20
2019-03-21T19:11:37.130Z,11.78
2019-03-21T19:14:05.365Z,14.30
2019-03-21T19:16:33.583Z,14.20
2019-03-21T19:19:02.762Z,12.50
2019-03-21T19:21:31.051Z,10.25
2019-03-21T19:23:59.333Z,12.53
2019-03-21T19:26:27.585Z,12.53
2019-03-21T19:28:55.947Z,14.03
2019-03-21T19:31:24.539Z,12.88
2019-03-21T19:33:52.832Z,12.47
2019-03-21T19:36:21.103Z,15.30
2019-03-21T19:38:49.352Z,43.28
2019-03-21T19:41:17.719Z,18.35
2019-03-21T19:43:45.944Z,16.00
2019-03-21T19:46:14.152Z,17.00
2019-03-21T19:48:50.266Z,14.10
2019-03-21T19:51:12.309Z,13.25
2019-03-21T19:53:40.530Z,12.60
2019-03-21T19:56:25.468Z,16.65
2019-03-21T19:58:53.974Z,13.35
2019-03-21T20:01:22.219Z,13.38
2019-03-21T20:03:51.103Z,16.48
2019-03-21T20:06:19.323Z,16.23
2019-03-21T20:08:47.570Z,17.15
2019-03-21T20:11:15.816Z,16.48
2019-03-21T20:13:44.037Z,20.15
2019-03-21T20:16:12.290Z,14.43
2019-03-21T20:18:40.515Z,17.85
2019-03-21T20:21:08.794Z,14.78
2019-03-21T20:23:37.060Z,13.13
2019-03-21T20:26:05.424Z,14.93
2019-03-21T20:28:33.647Z,14.00
2019-03-21T20:31:01.869Z,21.05
2019-03-21T20:33:30.125Z,15.20
2019-03-21T20:36:00.270Z,14.45
2019-03-21T20:38:28.526Z,16.75
2019-03-21T20:40:56.773Z,15.85
2019-03-21T20:43:26.643Z,13.00
2019-03-21T20:45:54.882Z,12.93
2019-03-21T20:48:27.959Z,12.40
2019-03-21T20:50:56.736Z,11.78
2019-03-21T20:53:25.019Z,11.25
2019-03-21T20:55:54.060Z,13.72
2019-03-21T20:58:22.337Z,13.05
2019-03-21T21:00:50.563Z,13.13
2019-03-21T21:03:18.780Z,14.05
2019-03-21T21:05:47.022Z,14.45
2019-03-21T21:08:15.282Z,14.80
2019-03-21T21:10:43.509Z,18.62
2019-03-21T21:13:11.781Z,12.85
2019-03-21T21:15:40.000Z,14.10
2019-03-21T21:18:08.221Z,10.68
2019-03-21T21:20:36.475Z,15.43
2019-03-21T21:23:04.677Z,13.60
2019-03-21T21:25:32.898Z,12.63
2019-03-21T21:28:01.114Z,10.45
2019-03-21T21:30:29.367Z,12.05
2019-03-21T21:32:57.575Z,13.78
2019-03-21T21:35:25.823Z,17.67
2019-03-21T21:37:54.072Z,12.53
2019-03-21T21:40:22.290Z,12.80
2019-03-21T21:42:50.516Z,14.83
2019-03-21T21:45:18.721Z,15.78
2019-03-21T21:47:46.941Z,12.05
2019-03-21T21:50:16.150Z,11.53
2019-03-21T21:52:44.358Z,11.18
2019-03-21T21:55:12.711Z,16.12
2019-03-21T21:57:40.950Z,12.95
2019-03-21T22:00:18.195Z,13.00
2019-03-21T22:02:46.404Z,11.95
2019-03-21T22:05:14.625Z,14.60
2019-03-21T22:07:42.875Z,13.45
2019-03-21T22:10:11.103Z,13.53
2019-03-21T22:12:39.307Z,15.43
2019-03-21T22:15:28.781Z,12.98
2019-03-21T22:17:57.500Z,13.38
2019-03-21T22:20:25.759Z,13.98
2019-03-21T22:22:53.954Z,13.30
2019-03-21T22:25:22.174Z,12.95
2019-03-21T22:27:50.400Z,12.40
2019-03-21T22:30:19.173Z,16.05
2019-03-21T22:32:47.484Z,21.05
2019-03-21T22:35:15.735Z,15.28
2019-03-21T22:37:44.012Z,12.23
2019-03-21T22:40:18.575Z,16.17
2019-03-21T22:42:48.265Z,16.97
2019-03-21T22:45:17.139Z,18.07
2019-03-21T22:47:46.373Z,14.18
2019-03-21T22:50:15.630Z,13.35
2019-03-21T22:52:44.158Z,13.75
2019-03-21T22:55:12.362Z,16.00
2019-03-21T22:57:40.586Z,15.03
2019-03-21T23:00:14.355Z,17.52
2019-03-21T23:02:42.562Z,17.32
2019-03-21T23:05:10.764Z,17.75
2019-03-21T23:07:39.019Z,13.72
2019-03-21T23:10:08.011Z,15.13
2019-03-21T23:12:36.232Z,14.63
2019-03-21T23:15:07.015Z,16.15
2019-03-21T23:17:35.227Z,17.30
2019-03-21T23:20:05.525Z,17.05
2019-03-21T23:22:33.785Z,18.40
2019-03-21T23:25:02.011Z,15.32
2019-03-21T23:27:30.256Z,15.20
2019-03-21T23:29:58.465Z,14.73
2019-03-21T23:32:26.802Z,20.40
2019-03-21T23:34:55.014Z,17.75
2019-03-21T23:37:23.229Z,16.90
2019-03-21T23:39:51.474Z,14.80
2019-03-21T23:42:19.698Z,15.30
2019-03-21T23:44:47.921Z,14.90
2019-03-21T23:47:16.143Z,17.70
2019-03-21T23:49:44.446Z,17.42
2019-03-21T23:52:12.641Z,14.47
2019-03-21T23:54:40.864Z,15.32
2019-03-21T23:57:09.083Z,16.80
2019-03-21T23:59:37.328Z,17.42
